2G4

Garrett County Airport

Oakland, Maryland, USA
METAR K2G4 121825Z AUTO 19007KT 10SM CLR 00/M05 A3002 RMK AO1
Observed Flight Rules
Dec-12 @ 18:25 UTC (24 minutes ago) Visual Flight Rules
Wind Visibility Clouds
190° at 7 knots 10 miles
  • Clear skies
Temperatures Readings
Current 0°C / 32°F
Dewpoint -5°C / 23°F
Humidity 69%
Altimeter 30.02" Hg
Pressure 1017 hPa
Elevation 894
METAR K2G4 121825Z AUTO 19007KT 10SM CLR 00/M05 A3002 RMK AO1
Observed Flight Rules
Dec-12 @ 18:25 UTC
(24 minutes ago)
VFR
Wind Visibility
190° at 7 knots 10 miles
Clouds
  • Clear skies
Temperature Dewpoint
0°C / 32°F -5°C / 23°F
Humidity Altimeter Pressure
69% 30.02" Hg 1017 hPa